sensor_id;sensor_type;location;lat;lon;timestamp;temperature;humidity
47090;DHT22;32840;52.516;13.294;2023-02-08T00:00:55;0.50;99.90
47090;DHT22;32840;52.516;13.294;2023-02-08T00:03:39;0.50;99.90
47090;DHT22;32840;52.516;13.294;2023-02-08T00:06:24;0.40;99.90
47090;DHT22;32840;52.516;13.294;2023-02-08T00:09:09;0.30;99.90
47090;DHT22;32840;52.516;13.294;2023-02-08T00:11:55;0.20;99.90
47090;DHT22;32840;52.516;13.294;2023-02-08T00:14:40;0.20;99.90
47090;DHT22;32840;52.516;13.294;2023-02-08T00:17:25;0.20;99.90
47090;DHT22;32840;52.516;13.294;2023-02-08T00:20:10;0.10;99.90
47090;DHT22;32840;52.516;13.294;2023-02-08T00:22:55;0.00;99.90
47090;DHT22;32840;52.516;13.294;2023-02-08T00:25:40;0.00;99.90
47090;DHT22;32840;52.516;13.294;2023-02-08T00:28:25;0.00;99.90
47090;DHT22;32840;52.516;13.294;2023-02-08T00:31:10;-0.10;99.90
47090;DHT22;32840;52.516;13.294;2023-02-08T00:33:55;-0.10;99.90
47090;DHT22;32840;52.516;13.294;2023-02-08T00:36:40;-0.10;99.90
47090;DHT22;32840;52.516;13.294;2023-02-08T00:39:25;-0.10;99.90
47090;DHT22;32840;52.516;13.294;2023-02-08T00:42:10;-0.20;99.90
47090;DHT22;32840;52.516;13.294;2023-02-08T00:44:55;-0.20;99.90
47090;DHT22;32840;52.516;13.294;2023-02-08T00:47:40;-0.20;99.90
47090;DHT22;32840;52.516;13.294;2023-02-08T00:50:25;-0.20;99.90
47090;DHT22;32840;52.516;13.294;2023-02-08T00:53:10;-0.20;99.90
47090;DHT22;32840;52.516;13.294;2023-02-08T00:55:55;-0.20;99.90
47090;DHT22;32840;52.516;13.294;2023-02-08T00:58:41;-0.20;99.90
47090;DHT22;32840;52.516;13.294;2023-02-08T01:01:26;-0.10;99.90
47090;DHT22;32840;52.516;13.294;2023-02-08T01:04:12;0.00;99.90
47090;DHT22;32840;52.516;13.294;2023-02-08T01:06:57;0.00;99.90
47090;DHT22;32840;52.516;13.294;2023-02-08T01:09:41;0.10;99.90
47090;DHT22;32840;52.516;13.294;2023-02-08T01:12:27;0.00;99.90
47090;DHT22;32840;52.516;13.294;2023-02-08T01:15:11;-0.10;99.90
47090;DHT22;32840;52.516;13.294;2023-02-08T01:17:57;-0.20;99.90
47090;DHT22;32840;52.516;13.294;2023-02-08T01:20:41;-0.20;99.90
47090;DHT22;32840;52.516;13.294;2023-02-08T01:23:26;-0.30;99.90
47090;DHT22;32840;52.516;13.294;2023-02-08T01:26:14;-0.20;99.90
47090;DHT22;32840;52.516;13.294;2023-02-08T01:28:59;-0.30;99.90
47090;DHT22;32840;52.516;13.294;2023-02-08T01:31:44;-0.30;99.90
47090;DHT22;32840;52.516;13.294;2023-02-08T01:34:29;-0.30;99.90
47090;DHT22;32840;52.516;13.294;2023-02-08T01:37:14;-0.40;99.90
47090;DHT22;32840;52.516;13.294;2023-02-08T01:39:59;-0.40;99.90
47090;DHT22;32840;52.516;13.294;2023-02-08T01:42:47;-0.40;99.90
47090;DHT22;32840;52.516;13.294;2023-02-08T01:45:31;-0.40;99.90
47090;DHT22;32840;52.516;13.294;2023-02-08T01:48:27;-0.40;99.90
47090;DHT22;32840;52.516;13.294;2023-02-08T01:51:25;-0.40;99.90
47090;DHT22;32840;52.516;13.294;2023-02-08T01:54:15;-0.50;99.90
47090;DHT22;32840;52.516;13.294;2023-02-08T01:57:02;-0.30;99.90
47090;DHT22;32840;52.516;13.294;2023-02-08T01:59:58;-0.10;99.90
47090;DHT22;32840;52.516;13.294;2023-02-08T02:02:46;0.00;99.90
47090;DHT22;32840;52.516;13.294;2023-02-08T02:05:37;0.00;99.90
47090;DHT22;32840;52.516;13.294;2023-02-08T02:08:22;0.10;99.90
47090;DHT22;32840;52.516;13.294;2023-02-08T02:11:08;0.20;99.90
47090;DHT22;32840;52.516;13.294;2023-02-08T02:13:53;0.20;99.90
47090;DHT22;32840;52.516;13.294;2023-02-08T02:16:38;0.20;99.90
47090;DHT22;32840;52.516;13.294;2023-02-08T02:19:35;0.20;99.90
47090;DHT22;32840;52.516;13.294;2023-02-08T02:27:06;0.30;99.90
47090;DHT22;32840;52.516;13.294;2023-02-08T02:35:59;0.40;99.90
47090;DHT22;32840;52.516;13.294;2023-02-08T02:45:20;0.40;99.90
47090;DHT22;32840;52.516;13.294;2023-02-08T02:48:37;0.40;99.90
47090;DHT22;32840;52.516;13.294;2023-02-08T02:51:24;0.40;99.90
47090;DHT22;32840;52.516;13.294;2023-02-08T02:54:25;0.30;99.90
47090;DHT22;32840;52.516;13.294;2023-02-08T02:57:15;0.30;99.90
47090;DHT22;32840;52.516;13.294;2023-02-08T03:00:07;0.30;99.90
47090;DHT22;32840;52.516;13.294;2023-02-08T03:02:53;0.30;99.90
47090;DHT22;32840;52.516;13.294;2023-02-08T03:05:39;0.20;99.90
47090;DHT22;32840;52.516;13.294;2023-02-08T03:09:21;0.20;99.90
47090;DHT22;32840;52.516;13.294;2023-02-08T03:15:29;0.10;99.90
47090;DHT22;32840;52.516;13.294;2023-02-08T03:21:57;-0.10;99.90
47090;DHT22;32840;52.516;13.294;2023-02-08T03:24:56;-0.20;99.90
47090;DHT22;32840;52.516;13.294;2023-02-08T03:28:07;-0.20;99.90
47090;DHT22;32840;52.516;13.294;2023-02-08T03:31:17;-0.30;99.90
47090;DHT22;32840;52.516;13.294;2023-02-08T03:34:13;-0.30;99.90
47090;DHT22;32840;52.516;13.294;2023-02-08T03:37:04;-0.20;99.90
47090;DHT22;32840;52.516;13.294;2023-02-08T03:40:05;-0.20;99.90
47090;DHT22;32840;52.516;13.294;2023-02-08T03:42:53;-0.10;99.90
47090;DHT22;32840;52.516;13.294;2023-02-08T03:45:50;0.00;99.90
47090;DHT22;32840;52.516;13.294;2023-02-08T03:48:39;0.00;99.90
47090;DHT22;32840;52.516;13.294;2023-02-08T03:51:27;-0.10;99.90
47090;DHT22;32840;52.516;13.294;2023-02-08T03:54:18;-0.10;99.90
47090;DHT22;32840;52.516;13.294;2023-02-08T03:57:15;-0.10;99.90
47090;DHT22;32840;52.516;13.294;2023-02-08T04:00:06;-0.10;99.90
47090;DHT22;32840;52.516;13.294;2023-02-08T04:02:58;-0.20;99.90
47090;DHT22;32840;52.516;13.294;2023-02-08T04:05:45;-0.20;99.90
47090;DHT22;32840;52.516;13.294;2023-02-08T04:08:31;-0.20;99.90
47090;DHT22;32840;52.516;13.294;2023-02-08T04:11:16;-0.10;99.90
47090;DHT22;32840;52.516;13.294;2023-02-08T04:14:02;-0.10;99.90
47090;DHT22;32840;52.516;13.294;2023-02-08T04:16:48;-0.10;99.90
47090;DHT22;32840;52.516;13.294;2023-02-08T04:19:33;-0.10;99.90
47090;DHT22;32840;52.516;13.294;2023-02-08T04:22:18;-0.10;99.90
47090;DHT22;32840;52.516;13.294;2023-02-08T04:25:03;-0.20;99.90
47090;DHT22;32840;52.516;13.294;2023-02-08T04:27:47;-0.20;99.90
47090;DHT22;32840;52.516;13.294;2023-02-08T04:30:32;-0.10;99.90
47090;DHT22;32840;52.516;13.294;2023-02-08T04:33:18;-0.10;99.90
47090;DHT22;32840;52.516;13.294;2023-02-08T04:36:03;-0.10;99.90
47090;DHT22;32840;52.516;13.294;2023-02-08T04:38:48;-0.10;99.90
47090;DHT22;32840;52.516;13.294;2023-02-08T04:41:34;-0.10;99.90
47090;DHT22;32840;52.516;13.294;2023-02-08T04:44:19;-0.10;99.90
47090;DHT22;32840;52.516;13.294;2023-02-08T04:47:03;-0.10;99.90
47090;DHT22;32840;52.516;13.294;2023-02-08T04:49:50;-0.20;99.90
47090;DHT22;32840;52.516;13.294;2023-02-08T04:52:35;-0.10;99.90
47090;DHT22;32840;52.516;13.294;2023-02-08T04:55:19;-0.10;99.90
47090;DHT22;32840;52.516;13.294;2023-02-08T04:58:04;0.00;99.90
47090;DHT22;32840;52.516;13.294;2023-02-08T05:00:49;-0.10;99.90
47090;DHT22;32840;52.516;13.294;2023-02-08T05:03:34;-0.10;99.90
47090;DHT22;32840;52.516;13.294;2023-02-08T05:06:19;-0.10;99.90
47090;DHT22;32840;52.516;13.294;2023-02-08T05:09:06;-0.20;99.90
47090;DHT22;32840;52.516;13.294;2023-02-08T05:11:51;-0.10;99.90
47090;DHT22;32840;52.516;13.294;2023-02-08T05:14:36;-0.10;99.90
47090;DHT22;32840;52.516;13.294;2023-02-08T05:17:21;-0.10;99.90
47090;DHT22;32840;52.516;13.294;2023-02-08T05:20:07;-0.10;99.90
47090;DHT22;32840;52.516;13.294;2023-02-08T05:22:51;-0.10;99.90
47090;DHT22;32840;52.516;13.294;2023-02-08T05:25:38;-0.20;99.90
47090;DHT22;32840;52.516;13.294;2023-02-08T05:28:24;-0.20;99.90
47090;DHT22;32840;52.516;13.294;2023-02-08T05:31:15;-0.20;99.90
47090;DHT22;32840;52.516;13.294;2023-02-08T05:34:00;-0.20;99.90
47090;DHT22;32840;52.516;13.294;2023-02-08T05:36:45;-0.20;99.90
47090;DHT22;32840;52.516;13.294;2023-02-08T05:39:30;-0.20;99.90
47090;DHT22;32840;52.516;13.294;2023-02-08T05:42:15;-0.30;99.90
47090;DHT22;32840;52.516;13.294;2023-02-08T05:45:00;-0.30;99.90
47090;DHT22;32840;52.516;13.294;2023-02-08T05:47:45;-0.30;99.90
47090;DHT22;32840;52.516;13.294;2023-02-08T05:50:32;-0.30;99.90
47090;DHT22;32840;52.516;13.294;2023-02-08T05:53:17;-0.30;99.90
47090;DHT22;32840;52.516;13.294;2023-02-08T05:56:02;-0.30;99.90
47090;DHT22;32840;52.516;13.294;2023-02-08T05:58:46;-0.30;99.90
47090;DHT22;32840;52.516;13.294;2023-02-08T06:01:31;-0.30;99.90
47090;DHT22;32840;52.516;13.294;2023-02-08T06:04:16;-0.30;99.90
47090;DHT22;32840;52.516;13.294;2023-02-08T06:07:01;-0.40;99.90
47090;DHT22;32840;52.516;13.294;2023-02-08T06:09:46;-0.50;99.90
47090;DHT22;32840;52.516;13.294;2023-02-08T06:12:32;-0.50;99.90
47090;DHT22;32840;52.516;13.294;2023-02-08T06:15:17;-0.60;99.90
47090;DHT22;32840;52.516;13.294;2023-02-08T06:18:02;-0.60;99.90
47090;DHT22;32840;52.516;13.294;2023-02-08T06:20:47;-0.50;99.90
47090;DHT22;32840;52.516;13.294;2023-02-08T06:23:32;-0.50;99.90
47090;DHT22;32840;52.516;13.294;2023-02-08T06:26:17;-0.60;99.90
47090;DHT22;32840;52.516;13.294;2023-02-08T06:29:02;-0.60;99.90
47090;DHT22;32840;52.516;13.294;2023-02-08T06:31:47;-0.70;99.90
47090;DHT22;32840;52.516;13.294;2023-02-08T06:34:33;-0.60;99.90
47090;DHT22;32840;52.516;13.294;2023-02-08T06:37:18;-0.50;99.90
47090;DHT22;32840;52.516;13.294;2023-02-08T06:40:04;-0.50;99.90
47090;DHT22;32840;52.516;13.294;2023-02-08T06:42:49;-0.50;99.90
47090;DHT22;32840;52.516;13.294;2023-02-08T06:45:34;-0.50;99.90
47090;DHT22;32840;52.516;13.294;2023-02-08T06:48:19;-0.50;99.90
47090;DHT22;32840;52.516;13.294;2023-02-08T06:51:04;-0.60;99.90
47090;DHT22;32840;52.516;13.294;2023-02-08T06:53:48;-0.70;99.90
47090;DHT22;32840;52.516;13.294;2023-02-08T06:56:33;-0.70;99.90
47090;DHT22;32840;52.516;13.294;2023-02-08T06:59:18;-0.70;99.90
47090;DHT22;32840;52.516;13.294;2023-02-08T07:02:04;-0.70;99.90
47090;DHT22;32840;52.516;13.294;2023-02-08T07:04:49;-0.70;99.90
47090;DHT22;32840;52.516;13.294;2023-02-08T07:07:34;-0.70;99.90
47090;DHT22;32840;52.516;13.294;2023-02-08T07:10:19;-0.60;99.90
47090;DHT22;32840;52.516;13.294;2023-02-08T07:13:04;-0.60;99.90
47090;DHT22;32840;52.516;13.294;2023-02-08T07:15:49;-0.60;99.90
47090;DHT22;32840;52.516;13.294;2023-02-08T07:18:35;-0.70;99.90
47090;DHT22;32840;52.516;13.294;2023-02-08T07:21:20;-0.60;99.90
47090;DHT22;32840;52.516;13.294;2023-02-08T07:24:05;-0.60;99.90
47090;DHT22;32840;52.516;13.294;2023-02-08T07:26:50;-0.60;99.90
47090;DHT22;32840;52.516;13.294;2023-02-08T07:29:35;-0.70;99.90
47090;DHT22;32840;52.516;13.294;2023-02-08T07:32:20;-0.60;99.90
47090;DHT22;32840;52.516;13.294;2023-02-08T07:35:05;-0.60;99.90
47090;DHT22;32840;52.516;13.294;2023-02-08T07:37:49;-0.50;99.90
47090;DHT22;32840;52.516;13.294;2023-02-08T07:40:35;-0.50;99.90
47090;DHT22;32840;52.516;13.294;2023-02-08T07:43:30;-0.50;99.90
47090;DHT22;32840;52.516;13.294;2023-02-08T07:46:19;-0.50;99.90
47090;DHT22;32840;52.516;13.294;2023-02-08T07:49:04;-0.40;99.90
47090;DHT22;32840;52.516;13.294;2023-02-08T07:51:48;-0.40;99.90
47090;DHT22;32840;52.516;13.294;2023-02-08T07:54:34;-0.40;99.90
47090;DHT22;32840;52.516;13.294;2023-02-08T07:57:19;-0.30;99.90
47090;DHT22;32840;52.516;13.294;2023-02-08T08:00:06;-0.30;99.90
47090;DHT22;32840;52.516;13.294;2023-02-08T08:02:51;-0.30;99.90
47090;DHT22;32840;52.516;13.294;2023-02-08T08:05:35;-0.30;99.90
47090;DHT22;32840;52.516;13.294;2023-02-08T08:08:23;-0.20;99.90
47090;DHT22;32840;52.516;13.294;2023-02-08T08:11:08;-0.20;99.90
47090;DHT22;32840;52.516;13.294;2023-02-08T08:13:53;-0.20;99.90
47090;DHT22;32840;52.516;13.294;2023-02-08T08:16:38;-0.20;99.90
47090;DHT22;32840;52.516;13.294;2023-02-08T08:19:23;-0.20;99.90
47090;DHT22;32840;52.516;13.294;2023-02-08T08:22:08;-0.20;99.90
47090;DHT22;32840;52.516;13.294;2023-02-08T08:24:54;-0.20;99.90
47090;DHT22;32840;52.516;13.294;2023-02-08T08:27:39;-0.20;99.90
47090;DHT22;32840;52.516;13.294;2023-02-08T08:30:24;-0.10;99.90
47090;DHT22;32840;52.516;13.294;2023-02-08T08:33:09;0.00;99.90
47090;DHT22;32840;52.516;13.294;2023-02-08T08:35:54;0.00;99.90
47090;DHT22;32840;52.516;13.294;2023-02-08T08:38:40;0.00;99.90
47090;DHT22;32840;52.516;13.294;2023-02-08T08:41:25;0.00;99.90
47090;DHT22;32840;52.516;13.294;2023-02-08T08:44:11;0.10;99.90
47090;DHT22;32840;52.516;13.294;2023-02-08T08:46:58;0.10;99.90
47090;DHT22;32840;52.516;13.294;2023-02-08T08:49:49;0.20;99.90
47090;DHT22;32840;52.516;13.294;2023-02-08T08:52:34;0.20;99.90
47090;DHT22;32840;52.516;13.294;2023-02-08T08:55:18;0.20;99.90
47090;DHT22;32840;52.516;13.294;2023-02-08T08:58:03;0.20;99.90
47090;DHT22;32840;52.516;13.294;2023-02-08T09:00:48;0.10;99.90
47090;DHT22;32840;52.516;13.294;2023-02-08T09:03:33;0.20;99.90
47090;DHT22;32840;52.516;13.294;2023-02-08T09:06:19;0.20;99.90
47090;DHT22;32840;52.516;13.294;2023-02-08T09:09:05;0.30;99.90
47090;DHT22;32840;52.516;13.294;2023-02-08T09:11:52;0.30;99.90
47090;DHT22;32840;52.516;13.294;2023-02-08T09:14:37;0.30;99.90
47090;DHT22;32840;52.516;13.294;2023-02-08T09:17:22;0.40;99.90
47090;DHT22;32840;52.516;13.294;2023-02-08T09:20:08;0.50;99.90
47090;DHT22;32840;52.516;13.294;2023-02-08T09:22:53;0.60;99.90
47090;DHT22;32840;52.516;13.294;2023-02-08T09:25:38;0.80;99.90
47090;DHT22;32840;52.516;13.294;2023-02-08T09:28:23;0.90;99.90
47090;DHT22;32840;52.516;13.294;2023-02-08T09:31:24;1.10;99.90
47090;DHT22;32840;52.516;13.294;2023-02-08T09:34:09;1.20;99.90
47090;DHT22;32840;52.516;13.294;2023-02-08T09:36:53;1.30;99.90
47090;DHT22;32840;52.516;13.294;2023-02-08T09:39:39;1.40;99.90
47090;DHT22;32840;52.516;13.294;2023-02-08T09:42:38;1.50;99.90
47090;DHT22;32840;52.516;13.294;2023-02-08T09:45:43;1.50;99.90
47090;DHT22;32840;52.516;13.294;2023-02-08T09:48:34;1.40;99.90
47090;DHT22;32840;52.516;13.294;2023-02-08T09:51:52;1.40;99.90
47090;DHT22;32840;52.516;13.294;2023-02-08T09:54:53;1.50;99.90
47090;DHT22;32840;52.516;13.294;2023-02-08T09:57:43;1.50;99.90
47090;DHT22;32840;52.516;13.294;2023-02-08T10:00:40;1.60;99.90
47090;DHT22;32840;52.516;13.294;2023-02-08T10:03:41;1.70;99.90
47090;DHT22;32840;52.516;13.294;2023-02-08T10:06:30;1.70;99.90
47090;DHT22;32840;52.516;13.294;2023-02-08T10:09:19;1.70;99.90
47090;DHT22;32840;52.516;13.294;2023-02-08T10:15:29;1.70;99.90
47090;DHT22;32840;52.516;13.294;2023-02-08T10:21:55;1.80;99.90
47090;DHT22;32840;52.516;13.294;2023-02-08T10:25:26;1.80;99.90
47090;DHT22;32840;52.516;13.294;2023-02-08T10:31:49;1.90;99.90
47090;DHT22;32840;52.516;13.294;2023-02-08T10:34:52;1.90;99.90
47090;DHT22;32840;52.516;13.294;2023-02-08T10:37:40;2.10;99.90
47090;DHT22;32840;52.516;13.294;2023-02-08T10:43:25;2.00;99.90
47090;DHT22;32840;52.516;13.294;2023-02-08T10:52:19;2.00;99.90
47090;DHT22;32840;52.516;13.294;2023-02-08T10:55:12;2.10;99.90
47090;DHT22;32840;52.516;13.294;2023-02-08T10:58:03;2.20;99.90
47090;DHT22;32840;52.516;13.294;2023-02-08T11:00:50;2.30;99.90
47090;DHT22;32840;52.516;13.294;2023-02-08T11:03:36;2.20;99.90
47090;DHT22;32840;52.516;13.294;2023-02-08T11:06:26;2.10;99.90
47090;DHT22;32840;52.516;13.294;2023-02-08T11:09:27;2.10;99.90
47090;DHT22;32840;52.516;13.294;2023-02-08T11:12:19;2.20;99.90
47090;DHT22;32840;52.516;13.294;2023-02-08T11:15:28;2.20;99.90
47090;DHT22;32840;52.516;13.294;2023-02-08T11:18:26;2.20;99.90
47090;DHT22;32840;52.516;13.294;2023-02-08T11:21:27;2.20;99.90
47090;DHT22;32840;52.516;13.294;2023-02-08T11:24:37;2.30;99.90
47090;DHT22;32840;52.516;13.294;2023-02-08T11:27:36;2.20;99.90
47090;DHT22;32840;52.516;13.294;2023-02-08T11:30:29;2.30;99.90
47090;DHT22;32840;52.516;13.294;2023-02-08T11:33:19;2.40;99.90
47090;DHT22;32840;52.516;13.294;2023-02-08T11:36:10;2.40;99.90
47090;DHT22;32840;52.516;13.294;2023-02-08T11:39:01;2.40;99.90
47090;DHT22;32840;52.516;13.294;2023-02-08T11:41:48;2.40;99.90
47090;DHT22;32840;52.516;13.294;2023-02-08T11:44:36;2.50;99.90
47090;DHT22;32840;52.516;13.294;2023-02-08T11:47:33;2.50;99.90
47090;DHT22;32840;52.516;13.294;2023-02-08T11:50:28;2.60;99.90
47090;DHT22;32840;52.516;13.294;2023-02-08T11:53:21;2.50;99.90
47090;DHT22;32840;52.516;13.294;2023-02-08T11:56:21;2.50;99.90
47090;DHT22;32840;52.516;13.294;2023-02-08T11:59:23;2.60;99.90
47090;DHT22;32840;52.516;13.294;2023-02-08T12:02:41;2.60;99.90
47090;DHT22;32840;52.516;13.294;2023-02-08T12:12:43;2.70;99.90
47090;DHT22;32840;52.516;13.294;2023-02-08T12:15:55;2.60;99.90
47090;DHT22;32840;52.516;13.294;2023-02-08T12:22:30;2.80;99.90
47090;DHT22;32840;52.516;13.294;2023-02-08T12:25:30;2.80;99.90
47090;DHT22;32840;52.516;13.294;2023-02-08T12:28:24;2.90;99.90
47090;DHT22;32840;52.516;13.294;2023-02-08T12:31:41;3.00;99.90
47090;DHT22;32840;52.516;13.294;2023-02-08T12:35:16;3.00;99.90
47090;DHT22;32840;52.516;13.294;2023-02-08T12:38:10;3.00;99.90
47090;DHT22;32840;52.516;13.294;2023-02-08T12:41:30;3.00;99.90
47090;DHT22;32840;52.516;13.294;2023-02-08T12:50:16;3.20;99.90
47090;DHT22;32840;52.516;13.294;2023-02-08T12:53:26;3.20;99.90
47090;DHT22;32840;52.516;13.294;2023-02-08T12:56:22;3.20;99.90
47090;DHT22;32840;52.516;13.294;2023-02-08T12:59:22;3.30;99.90
47090;DHT22;32840;52.516;13.294;2023-02-08T13:05:04;3.30;99.90
47090;DHT22;32840;52.516;13.294;2023-02-08T13:11:23;3.40;99.90
47090;DHT22;32840;52.516;13.294;2023-02-08T13:14:20;3.50;99.90
47090;DHT22;32840;52.516;13.294;2023-02-08T13:17:25;3.40;99.90
47090;DHT22;32840;52.516;13.294;2023-02-08T13:21:10;3.50;99.90
47090;DHT22;32840;52.516;13.294;2023-02-08T13:24:05;3.50;99.90
47090;DHT22;32840;52.516;13.294;2023-02-08T13:26:54;3.50;99.90
47090;DHT22;32840;52.516;13.294;2023-02-08T13:29:40;3.50;99.90
47090;DHT22;32840;52.516;13.294;2023-02-08T13:32:28;3.60;99.90
47090;DHT22;32840;52.516;13.294;2023-02-08T13:35:18;3.60;99.90
47090;DHT22;32840;52.516;13.294;2023-02-08T13:38:53;3.60;99.90
47090;DHT22;32840;52.516;13.294;2023-02-08T13:41:23;3.60;99.90
47090;DHT22;32840;52.516;13.294;2023-02-08T13:44:18;3.60;99.80
47090;DHT22;32840;52.516;13.294;2023-02-08T13:47:05;3.60;99.90
47090;DHT22;32840;52.516;13.294;2023-02-08T13:49:56;3.60;99.90
47090;DHT22;32840;52.516;13.294;2023-02-08T13:52:47;3.50;99.80
47090;DHT22;32840;52.516;13.294;2023-02-08T13:55:42;3.50;99.80
47090;DHT22;32840;52.516;13.294;2023-02-08T14:01:35;3.50;99.90
47090;DHT22;32840;52.516;13.294;2023-02-08T14:04:32;3.60;99.70
47090;DHT22;32840;52.516;13.294;2023-02-08T14:10:40;3.50;99.30
47090;DHT22;32840;52.516;13.294;2023-02-08T14:13:27;3.50;99.20
47090;DHT22;32840;52.516;13.294;2023-02-08T14:16:25;3.50;99.50
47090;DHT22;32840;52.516;13.294;2023-02-08T14:25:17;3.50;99.60
47090;DHT22;32840;52.516;13.294;2023-02-08T14:28:02;3.50;99.50
47090;DHT22;32840;52.516;13.294;2023-02-08T14:30:50;3.40;99.20
47090;DHT22;32840;52.516;13.294;2023-02-08T14:33:43;3.40;99.20
47090;DHT22;32840;52.516;13.294;2023-02-08T14:36:35;3.40;99.10
47090;DHT22;32840;52.516;13.294;2023-02-08T14:39:30;3.30;99.00
47090;DHT22;32840;52.516;13.294;2023-02-08T14:42:52;3.40;99.40
47090;DHT22;32840;52.516;13.294;2023-02-08T14:45:38;3.40;99.10
47090;DHT22;32840;52.516;13.294;2023-02-08T14:51:45;3.40;98.50
47090;DHT22;32840;52.516;13.294;2023-02-08T14:54:42;3.30;98.30
47090;DHT22;32840;52.516;13.294;2023-02-08T14:57:31;3.30;98.50
47090;DHT22;32840;52.516;13.294;2023-02-08T15:00:35;3.40;98.00
47090;DHT22;32840;52.516;13.294;2023-02-08T15:03:22;3.30;97.30
47090;DHT22;32840;52.516;13.294;2023-02-08T15:06:35;3.20;97.40
47090;DHT22;32840;52.516;13.294;2023-02-08T15:09:31;3.20;97.30
47090;DHT22;32840;52.516;13.294;2023-02-08T15:12:31;3.20;97.80
47090;DHT22;32840;52.516;13.294;2023-02-08T15:15:37;3.20;97.90
47090;DHT22;32840;52.516;13.294;2023-02-08T15:18:30;3.20;98.20
47090;DHT22;32840;52.516;13.294;2023-02-08T15:21:17;3.20;97.90
47090;DHT22;32840;52.516;13.294;2023-02-08T15:24:15;3.20;97.90
47090;DHT22;32840;52.516;13.294;2023-02-08T15:27:01;3.20;98.10
47090;DHT22;32840;52.516;13.294;2023-02-08T15:29:46;3.20;98.30
47090;DHT22;32840;52.516;13.294;2023-02-08T15:32:32;3.20;98.30
47090;DHT22;32840;52.516;13.294;2023-02-08T15:35:19;3.20;98.60
47090;DHT22;32840;52.516;13.294;2023-02-08T15:38:14;3.10;98.30
47090;DHT22;32840;52.516;13.294;2023-02-08T15:43:46;3.00;98.10
47090;DHT22;32840;52.516;13.294;2023-02-08T15:46:33;3.00;98.20
47090;DHT22;32840;52.516;13.294;2023-02-08T15:49:35;3.00;98.60
47090;DHT22;32840;52.516;13.294;2023-02-08T15:52:23;2.90;98.40
47090;DHT22;32840;52.516;13.294;2023-02-08T15:55:14;2.90;98.70
47090;DHT22;32840;52.516;13.294;2023-02-08T15:58:06;2.90;98.50
47090;DHT22;32840;52.516;13.294;2023-02-08T16:00:52;2.90;98.70
47090;DHT22;32840;52.516;13.294;2023-02-08T16:03:36;2.90;98.80
47090;DHT22;32840;52.516;13.294;2023-02-08T16:06:27;2.90;99.00
47090;DHT22;32840;52.516;13.294;2023-02-08T16:09:18;2.90;99.10
47090;DHT22;32840;52.516;13.294;2023-02-08T16:12:04;2.90;99.10
47090;DHT22;32840;52.516;13.294;2023-02-08T16:14:49;2.80;99.10
47090;DHT22;32840;52.516;13.294;2023-02-08T16:17:44;2.80;99.40
47090;DHT22;32840;52.516;13.294;2023-02-08T16:20:34;2.80;99.20
47090;DHT22;32840;52.516;13.294;2023-02-08T16:23:25;2.70;99.80
47090;DHT22;32840;52.516;13.294;2023-02-08T16:26:21;2.70;99.90
47090;DHT22;32840;52.516;13.294;2023-02-08T16:29:19;2.70;99.90
47090;DHT22;32840;52.516;13.294;2023-02-08T16:35:27;2.60;99.90
47090;DHT22;32840;52.516;13.294;2023-02-08T16:38:19;2.60;99.90
47090;DHT22;32840;52.516;13.294;2023-02-08T16:41:08;2.50;99.90
47090;DHT22;32840;52.516;13.294;2023-02-08T16:44:15;2.40;99.90
47090;DHT22;32840;52.516;13.294;2023-02-08T16:47:23;2.50;99.90
47090;DHT22;32840;52.516;13.294;2023-02-08T16:50:09;2.40;99.90
47090;DHT22;32840;52.516;13.294;2023-02-08T16:53:01;2.40;99.90
47090;DHT22;32840;52.516;13.294;2023-02-08T16:55:46;2.40;99.90
47090;DHT22;32840;52.516;13.294;2023-02-08T16:58:31;2.40;99.90
47090;DHT22;32840;52.516;13.294;2023-02-08T17:01:19;2.40;99.90
47090;DHT22;32840;52.516;13.294;2023-02-08T17:04:09;2.30;99.90
47090;DHT22;32840;52.516;13.294;2023-02-08T17:06:55;2.30;99.90
47090;DHT22;32840;52.516;13.294;2023-02-08T17:09:40;2.40;99.90
47090;DHT22;32840;52.516;13.294;2023-02-08T17:12:25;2.30;99.90
47090;DHT22;32840;52.516;13.294;2023-02-08T17:15:10;2.30;99.90
47090;DHT22;32840;52.516;13.294;2023-02-08T17:17:56;2.30;99.90
47090;DHT22;32840;52.516;13.294;2023-02-08T17:20:41;2.30;99.90
47090;DHT22;32840;52.516;13.294;2023-02-08T17:23:29;2.20;99.90
47090;DHT22;32840;52.516;13.294;2023-02-08T17:26:17;2.20;99.90
47090;DHT22;32840;52.516;13.294;2023-02-08T17:29:04;2.20;99.90
47090;DHT22;32840;52.516;13.294;2023-02-08T17:31:49;2.20;99.90
47090;DHT22;32840;52.516;13.294;2023-02-08T17:34:34;2.20;99.90
47090;DHT22;32840;52.516;13.294;2023-02-08T17:37:20;2.20;99.90
47090;DHT22;32840;52.516;13.294;2023-02-08T17:40:05;2.20;99.90
47090;DHT22;32840;52.516;13.294;2023-02-08T17:42:51;2.10;99.90
47090;DHT22;32840;52.516;13.294;2023-02-08T17:45:38;2.10;99.90
47090;DHT22;32840;52.516;13.294;2023-02-08T17:48:23;2.10;99.90
47090;DHT22;32840;52.516;13.294;2023-02-08T17:51:11;2.10;99.90
47090;DHT22;32840;52.516;13.294;2023-02-08T17:53:57;2.10;99.90
47090;DHT22;32840;52.516;13.294;2023-02-08T17:56:41;2.00;99.90
47090;DHT22;32840;52.516;13.294;2023-02-08T17:59:28;2.00;99.90
47090;DHT22;32840;52.516;13.294;2023-02-08T18:02:13;2.00;99.90
47090;DHT22;32840;52.516;13.294;2023-02-08T18:04:59;2.00;99.90
47090;DHT22;32840;52.516;13.294;2023-02-08T18:07:44;2.00;99.90
47090;DHT22;32840;52.516;13.294;2023-02-08T18:10:30;2.00;99.90
47090;DHT22;32840;52.516;13.294;2023-02-08T18:13:18;2.00;99.90
47090;DHT22;32840;52.516;13.294;2023-02-08T18:16:15;1.90;99.90
47090;DHT22;32840;52.516;13.294;2023-02-08T18:19:00;1.90;99.90
47090;DHT22;32840;52.516;13.294;2023-02-08T18:21:46;1.90;99.90
47090;DHT22;32840;52.516;13.294;2023-02-08T18:24:35;1.90;99.90
47090;DHT22;32840;52.516;13.294;2023-02-08T18:27:21;1.90;99.90
47090;DHT22;32840;52.516;13.294;2023-02-08T18:30:06;1.80;99.90
47090;DHT22;32840;52.516;13.294;2023-02-08T18:32:51;1.90;99.90
47090;DHT22;32840;52.516;13.294;2023-02-08T18:35:36;1.80;99.90
47090;DHT22;32840;52.516;13.294;2023-02-08T18:38:37;1.90;99.90
47090;DHT22;32840;52.516;13.294;2023-02-08T18:41:29;1.90;99.90
47090;DHT22;32840;52.516;13.294;2023-02-08T18:44:17;2.00;99.90
47090;DHT22;32840;52.516;13.294;2023-02-08T18:47:03;1.90;99.90
47090;DHT22;32840;52.516;13.294;2023-02-08T18:49:52;1.90;99.90
47090;DHT22;32840;52.516;13.294;2023-02-08T18:52:37;1.90;99.90
47090;DHT22;32840;52.516;13.294;2023-02-08T18:55:22;1.80;99.90
47090;DHT22;32840;52.516;13.294;2023-02-08T18:58:09;1.90;99.90
47090;DHT22;32840;52.516;13.294;2023-02-08T19:00:54;1.90;99.90
47090;DHT22;32840;52.516;13.294;2023-02-08T19:03:38;1.90;99.90
47090;DHT22;32840;52.516;13.294;2023-02-08T19:06:26;1.90;99.90
47090;DHT22;32840;52.516;13.294;2023-02-08T19:09:13;1.80;99.90
47090;DHT22;32840;52.516;13.294;2023-02-08T19:11:58;1.80;99.90
47090;DHT22;32840;52.516;13.294;2023-02-08T19:14:47;1.70;99.90